RYR1994 LFBO-GMFO
Flight info
| Callsign | RYR1994 |
|---|---|
| Flight time | 1h 38m |
| Altitude | 37000 |
| Route | GAUDE DCT ANETO DCT TURUV DCT GRAUS DCT LOBAR DCT SEROX DCT CASPE DCT MLA DCT CRETA DCT RIMES DCT SAURA DCT TATOS DCT PLANA DCT VLC DCT BEGOX DCT NARGO DCT RESTU DCT DOSEK DCT AMR DCT ESAMI UM372 ARI UN726 VABSI |
| Aircraft | B38M/M-SADE3FGILRWY/SB1 |
Departure
| Time | 2026-04-25 16:52 |
|---|---|
| Airport | Toulouse-Blagnac Airport (LFBO) |
Arrival
| Time | 2026-04-25 18:31 |
|---|---|
| Airport | Oujda Angads Airport (GMFO) |
| Time | Latitude | Longitude | Altitude | Speed | Heading |
|---|---|---|---|---|---|
| 2026-04-25 16:22 | 43.63193 | 1.36930 | 496 ft | 0 kts | 105° |
| 2026-04-25 16:41 | 43.63199 | 1.36901 | 485 ft | 4 kts | 107° |
| 2026-04-25 16:42 | 43.63207 | 1.36866 | 487 ft | 4 kts | 109° |
| 2026-04-25 16:42 | 43.63217 | 1.36831 | 493 ft | 4 kts | 113° |
| 2026-04-25 16:42 | 43.63229 | 1.36798 | 489 ft | 4 kts | 122° |
| 2026-04-25 16:42 | 43.63244 | 1.36772 | 485 ft | 2 kts | 143° |
| 2026-04-25 16:43 | 43.63245 | 1.36771 | 485 ft | 0 kts | 143° |
| 2026-04-25 16:44 | 43.63244 | 1.36772 | 485 ft | 1 kts | 143° |
| 2026-04-25 16:45 | 43.63233 | 1.36784 | 489 ft | 3 kts | 143° |
| 2026-04-25 16:45 | 43.63204 | 1.36807 | 487 ft | 6 kts | 158° |
| 2026-04-25 16:45 | 43.63155 | 1.36834 | 491 ft | 9 kts | 166° |
| 2026-04-25 16:45 | 43.63105 | 1.36797 | 487 ft | 8 kts | 224° |
| 2026-04-25 16:46 | 43.63049 | 1.36794 | 493 ft | 9 kts | 157° |
| 2026-04-25 16:46 | 43.62991 | 1.36849 | 496 ft | 11 kts | 143° |
| 2026-04-25 16:46 | 43.62922 | 1.36920 | 496 ft | 13 kts | 142° |
| 2026-04-25 16:46 | 43.62897 | 1.36947 | 496 ft | 14 kts | 142° |
| 2026-04-25 16:47 | 43.62752 | 1.37097 | 489 ft | 17 kts | 142° |
| 2026-04-25 16:47 | 43.62652 | 1.37201 | 496 ft | 19 kts | 143° |
| 2026-04-25 16:47 | 43.62549 | 1.37308 | 496 ft | 18 kts | 143° |
| 2026-04-25 16:47 | 43.62457 | 1.37405 | 489 ft | 17 kts | 143° |
| 2026-04-25 16:48 | 43.62360 | 1.37506 | 496 ft | 18 kts | 142° |
| 2026-04-25 16:48 | 43.62271 | 1.37598 | 488 ft | 14 kts | 143° |
| 2026-04-25 16:48 | 43.62180 | 1.37673 | 493 ft | 16 kts | 179° |
| 2026-04-25 16:48 | 43.62111 | 1.37580 | 489 ft | 12 kts | 234° |
| 2026-04-25 16:49 | 43.62088 | 1.37481 | 487 ft | 10 kts | 300° |
| 2026-04-25 16:49 | 43.62111 | 1.37453 | 492 ft | 0 kts | 323° |
| 2026-04-25 16:51 | 43.62112 | 1.37452 | 492 ft | 3 kts | 324° |
| 2026-04-25 16:51 | 43.62144 | 1.37419 | 489 ft | 33 kts | 323° |
| 2026-04-25 16:52 | 43.63084 | 1.36446 | 500 ft | 160 kts | 321° |
| 2026-04-25 16:52 | 43.64088 | 1.35420 | 918 ft | 196 kts | 320° |
| 2026-04-25 16:52 | 43.65166 | 1.34193 | 1885 ft | 206 kts | 318° |
| 2026-04-25 16:52 | 43.66287 | 1.32937 | 2682 ft | 216 kts | 321° |
| 2026-04-25 16:53 | 43.68768 | 1.29969 | 4113 ft | 239 kts | 307° |
| 2026-04-25 16:53 | 43.69335 | 1.28669 | 4805 ft | 241 kts | 290° |
| 2026-04-25 16:53 | 43.69401 | 1.25586 | 5888 ft | 255 kts | 251° |
| 2026-04-25 16:54 | 43.68851 | 1.24118 | 6300 ft | 267 kts | 233° |
| 2026-04-25 16:54 | 43.67362 | 1.22536 | 7100 ft | 274 kts | 201° |
| 2026-04-25 16:54 | 43.65466 | 1.22224 | 8009 ft | 282 kts | 173° |
| 2026-04-25 16:54 | 43.63506 | 1.22659 | 8851 ft | 288 kts | 174° |
| 2026-04-25 16:55 | 43.62184 | 1.22863 | 9444 ft | 290 kts | 179° |
| 2026-04-25 16:55 | 43.59604 | 1.21986 | 10540 ft | 292 kts | 212° |
| 2026-04-25 16:55 | 43.57863 | 1.20385 | 10980 ft | 310 kts | 217° |
| 2026-04-25 16:55 | 43.56056 | 1.18646 | 11520 ft | 324 kts | 217° |
| 2026-04-25 16:56 | 43.54192 | 1.16832 | 12243 ft | 330 kts | 217° |
| 2026-04-25 16:56 | 43.52314 | 1.14992 | 13067 ft | 334 kts | 217° |
| 2026-04-25 16:56 | 43.50406 | 1.13115 | 13865 ft | 339 kts | 217° |
| 2026-04-25 16:56 | 43.48474 | 1.11213 | 14609 ft | 343 kts | 217° |
| 2026-04-25 16:57 | 43.46525 | 1.09295 | 15366 ft | 346 kts | 217° |
| 2026-04-25 16:57 | 43.45221 | 1.08011 | 15864 ft | 349 kts | 217° |
| 2026-04-25 16:57 | 43.42567 | 1.05400 | 16848 ft | 353 kts | 217° |
| 2026-04-25 16:57 | 43.40557 | 1.03425 | 17573 ft | 357 kts | 217° |
| 2026-04-25 16:58 | 43.38528 | 1.01433 | 18291 ft | 360 kts | 217° |
| 2026-04-25 16:58 | 43.36477 | 0.99421 | 18908 ft | 363 kts | 217° |
| 2026-04-25 16:58 | 43.34414 | 0.97398 | 19510 ft | 367 kts | 216° |
| 2026-04-25 16:58 | 43.32326 | 0.95352 | 20095 ft | 370 kts | 216° |
| 2026-04-25 16:59 | 43.30228 | 0.93288 | 20667 ft | 373 kts | 216° |
| 2026-04-25 16:59 | 43.28111 | 0.91200 | 21243 ft | 376 kts | 216° |
| 2026-04-25 16:59 | 43.26008 | 0.89129 | 21797 ft | 379 kts | 216° |
| 2026-04-25 16:59 | 43.23854 | 0.87010 | 22356 ft | 382 kts | 216° |
| 2026-04-25 17:00 | 43.21653 | 0.84847 | 22914 ft | 386 kts | 216° |
| 2026-04-25 17:00 | 43.19493 | 0.82725 | 23467 ft | 389 kts | 216° |
| 2026-04-25 17:00 | 43.17289 | 0.80563 | 23964 ft | 391 kts | 216° |
| 2026-04-25 17:00 | 43.15069 | 0.78387 | 24438 ft | 393 kts | 216° |
| 2026-04-25 17:01 | 43.12837 | 0.76201 | 24893 ft | 396 kts | 216° |
| 2026-04-25 17:01 | 43.10592 | 0.74005 | 25346 ft | 398 kts | 216° |
| 2026-04-25 17:01 | 43.08336 | 0.71799 | 25786 ft | 400 kts | 216° |
| 2026-04-25 17:01 | 43.06062 | 0.69578 | 26221 ft | 402 kts | 216° |
| 2026-04-25 17:02 | 43.03779 | 0.67350 | 26662 ft | 404 kts | 216° |
| 2026-04-25 17:02 | 43.01474 | 0.65131 | 27086 ft | 407 kts | 212° |
| 2026-04-25 17:02 | 42.98889 | 0.63570 | 27497 ft | 409 kts | 194° |
| 2026-04-25 17:02 | 42.97007 | 0.63025 | 27771 ft | 410 kts | 192° |
| 2026-04-25 17:03 | 42.93283 | 0.61996 | 28250 ft | 414 kts | 192° |
| 2026-04-25 17:03 | 42.90442 | 0.61241 | 28658 ft | 416 kts | 191° |
| 2026-04-25 17:03 | 42.87587 | 0.60500 | 29037 ft | 419 kts | 191° |
| 2026-04-25 17:03 | 42.84717 | 0.59764 | 29424 ft | 421 kts | 191° |
| 2026-04-25 17:04 | 42.81828 | 0.59027 | 29780 ft | 424 kts | 191° |
| 2026-04-25 17:04 | 42.78924 | 0.58288 | 30134 ft | 426 kts | 191° |
| 2026-04-25 17:04 | 42.76008 | 0.57547 | 30442 ft | 428 kts | 191° |
| 2026-04-25 17:04 | 42.73073 | 0.56802 | 30749 ft | 430 kts | 191° |
| 2026-04-25 17:05 | 42.70128 | 0.56054 | 31047 ft | 432 kts | 191° |
| 2026-04-25 17:05 | 42.64199 | 0.54526 | 31667 ft | 435 kts | 191° |
| 2026-04-25 17:05 | 42.61217 | 0.53760 | 31965 ft | 437 kts | 191° |
| 2026-04-25 17:06 | 42.58216 | 0.52989 | 32265 ft | 439 kts | 191° |
| 2026-04-25 17:06 | 42.55205 | 0.52217 | 32550 ft | 441 kts | 191° |
| 2026-04-25 17:06 | 42.52182 | 0.51443 | 32827 ft | 443 kts | 191° |
| 2026-04-25 17:06 | 42.49149 | 0.50666 | 33150 ft | 444 kts | 191° |
| 2026-04-25 17:07 | 42.46122 | 0.49892 | 33543 ft | 443 kts | 191° |
| 2026-04-25 17:07 | 42.43094 | 0.49119 | 33949 ft | 442 kts | 191° |
| 2026-04-25 17:07 | 42.40082 | 0.48350 | 34314 ft | 441 kts | 191° |
| 2026-04-25 17:07 | 42.37071 | 0.47581 | 34655 ft | 439 kts | 191° |
| 2026-04-25 17:08 | 42.34073 | 0.46816 | 34976 ft | 438 kts | 191° |
| 2026-04-25 17:08 | 42.31077 | 0.46053 | 35287 ft | 437 kts | 191° |
| 2026-04-25 17:08 | 42.28088 | 0.45291 | 35598 ft | 437 kts | 191° |
| 2026-04-25 17:08 | 42.25100 | 0.44531 | 35885 ft | 436 kts | 191° |
| 2026-04-25 17:09 | 42.22122 | 0.43774 | 36174 ft | 436 kts | 191° |
| 2026-04-25 17:09 | 42.19145 | 0.43018 | 36448 ft | 435 kts | 191° |
| 2026-04-25 17:09 | 42.16170 | 0.42263 | 36727 ft | 435 kts | 191° |
| 2026-04-25 17:09 | 42.13205 | 0.41512 | 37005 ft | 434 kts | 191° |
| 2026-04-25 17:10 | 42.10230 | 0.40758 | 37116 ft | 435 kts | 191° |
| 2026-04-25 17:10 | 42.07262 | 0.40007 | 37082 ft | 433 kts | 191° |
| 2026-04-25 17:10 | 42.01676 | 0.38596 | 37084 ft | 433 kts | 191° |
| 2026-04-25 17:11 | 41.95755 | 0.37104 | 37075 ft | 433 kts | 191° |
| 2026-04-25 17:11 | 41.89835 | 0.35614 | 37073 ft | 433 kts | 191° |
| 2026-04-25 17:12 | 41.83917 | 0.34128 | 37071 ft | 433 kts | 191° |
| 2026-04-25 17:12 | 41.77997 | 0.32644 | 37073 ft | 432 kts | 191° |
| 2026-04-25 17:13 | 41.73082 | 0.31415 | 37069 ft | 432 kts | 191° |
| 2026-04-25 17:13 | 41.66184 | 0.29692 | 37074 ft | 432 kts | 191° |
| 2026-04-25 17:14 | 41.60287 | 0.28223 | 37071 ft | 431 kts | 191° |
| 2026-04-25 17:14 | 41.54395 | 0.26757 | 37063 ft | 430 kts | 191° |
| 2026-04-25 17:15 | 41.48519 | 0.25298 | 37059 ft | 430 kts | 191° |
| 2026-04-25 17:15 | 41.42647 | 0.23842 | 37056 ft | 429 kts | 191° |
| 2026-04-25 17:16 | 41.36782 | 0.22391 | 37060 ft | 429 kts | 191° |
| 2026-04-25 17:16 | 41.30921 | 0.20944 | 37054 ft | 428 kts | 191° |
| 2026-04-25 17:17 | 41.25063 | 0.19500 | 37056 ft | 428 kts | 191° |
| 2026-04-25 17:17 | 41.19203 | 0.18058 | 37060 ft | 428 kts | 191° |
| 2026-04-25 17:18 | 41.13356 | 0.16602 | 37056 ft | 427 kts | 194° |
| 2026-04-25 17:18 | 41.07657 | 0.14373 | 37064 ft | 428 kts | 197° |
| 2026-04-25 17:19 | 41.01994 | 0.12095 | 37061 ft | 428 kts | 197° |
| 2026-04-25 17:19 | 40.96286 | 0.09796 | 37061 ft | 429 kts | 197° |
| 2026-04-25 17:20 | 40.90572 | 0.07498 | 37098 ft | 430 kts | 197° |
| 2026-04-25 17:20 | 40.84830 | 0.05194 | 37073 ft | 432 kts | 197° |
| 2026-04-25 17:21 | 40.79073 | 0.02888 | 37076 ft | 432 kts | 197° |
| 2026-04-25 17:21 | 40.73320 | 0.00588 | 37080 ft | 432 kts | 197° |
| 2026-04-25 17:22 | 40.68538 | -0.01321 | 37084 ft | 432 kts | 197° |
| 2026-04-25 17:22 | 40.61816 | -0.04000 | 37089 ft | 432 kts | 197° |
| 2026-04-25 17:23 | 40.56063 | -0.06288 | 37087 ft | 432 kts | 196° |
| 2026-04-25 17:23 | 40.50303 | -0.08575 | 37087 ft | 433 kts | 196° |
| 2026-04-25 17:24 | 40.44538 | -0.10860 | 37087 ft | 433 kts | 196° |
| 2026-04-25 17:24 | 40.38777 | -0.13139 | 37079 ft | 433 kts | 196° |
| 2026-04-25 17:25 | 40.33003 | -0.15419 | 37079 ft | 433 kts | 196° |
| 2026-04-25 17:25 | 40.27224 | -0.17697 | 37078 ft | 434 kts | 196° |
| 2026-04-25 17:26 | 40.21431 | -0.19977 | 37083 ft | 435 kts | 195° |
| 2026-04-25 17:26 | 40.15629 | -0.22257 | 37089 ft | 436 kts | 195° |
| 2026-04-25 17:27 | 40.09812 | -0.24537 | 37090 ft | 436 kts | 195° |
| 2026-04-25 17:27 | 40.05957 | -0.26046 | 37097 ft | 437 kts | 195° |
| 2026-04-25 17:28 | 39.98156 | -0.29094 | 37103 ft | 438 kts | 195° |
| 2026-04-25 17:28 | 39.92316 | -0.31370 | 37105 ft | 438 kts | 195° |
| 2026-04-25 17:29 | 39.86471 | -0.33646 | 37102 ft | 439 kts | 195° |
| 2026-04-25 17:29 | 39.80622 | -0.35918 | 37101 ft | 438 kts | 195° |
| 2026-04-25 17:30 | 39.74786 | -0.38183 | 37100 ft | 438 kts | 195° |
| 2026-04-25 17:30 | 39.68985 | -0.40429 | 37102 ft | 438 kts | 195° |
| 2026-04-25 17:31 | 39.63148 | -0.42685 | 37104 ft | 437 kts | 195° |
| 2026-04-25 17:31 | 39.57313 | -0.44937 | 37101 ft | 437 kts | 196° |
| 2026-04-25 17:32 | 39.51476 | -0.47186 | 37102 ft | 437 kts | 196° |
| 2026-04-25 17:32 | 39.45889 | -0.50203 | 37114 ft | 437 kts | 208° |
| 2026-04-25 17:33 | 39.40520 | -0.53921 | 37111 ft | 438 kts | 207° |
| 2026-04-25 17:33 | 39.35145 | -0.57657 | 37100 ft | 439 kts | 207° |
| 2026-04-25 17:34 | 39.29770 | -0.61391 | 37098 ft | 439 kts | 207° |
| 2026-04-25 17:34 | 39.24387 | -0.65124 | 37097 ft | 439 kts | 207° |
| 2026-04-25 17:35 | 39.19002 | -0.68852 | 37081 ft | 440 kts | 207° |
| 2026-04-25 17:35 | 39.13610 | -0.72578 | 37093 ft | 440 kts | 207° |
| 2026-04-25 17:36 | 39.08213 | -0.76301 | 37097 ft | 440 kts | 207° |
| 2026-04-25 17:36 | 39.02816 | -0.80017 | 37085 ft | 440 kts | 207° |
| 2026-04-25 17:37 | 38.97412 | -0.83733 | 37096 ft | 440 kts | 207° |
| 2026-04-25 17:37 | 38.92014 | -0.87437 | 37088 ft | 440 kts | 207° |
| 2026-04-25 17:38 | 38.88439 | -0.89886 | 37089 ft | 440 kts | 207° |
| 2026-04-25 17:38 | 38.81234 | -0.94815 | 37082 ft | 441 kts | 207° |
| 2026-04-25 17:39 | 38.75815 | -0.98514 | 37092 ft | 442 kts | 207° |
| 2026-04-25 17:39 | 38.70387 | -1.02213 | 37104 ft | 442 kts | 207° |
| 2026-04-25 17:40 | 38.64951 | -1.05911 | 37094 ft | 442 kts | 207° |
| 2026-04-25 17:40 | 38.60393 | -1.09007 | 37103 ft | 443 kts | 207° |
| 2026-04-25 17:41 | 38.54943 | -1.12703 | 37099 ft | 444 kts | 207° |
| 2026-04-25 17:41 | 38.49491 | -1.16394 | 37105 ft | 444 kts | 207° |
| 2026-04-25 17:42 | 38.44028 | -1.20086 | 37096 ft | 444 kts | 207° |
| 2026-04-25 17:42 | 38.38557 | -1.23777 | 37100 ft | 445 kts | 207° |
| 2026-04-25 17:43 | 38.33087 | -1.27461 | 37107 ft | 445 kts | 207° |
| 2026-04-25 17:43 | 38.27610 | -1.31143 | 37108 ft | 446 kts | 207° |
| 2026-04-25 17:44 | 38.22125 | -1.34825 | 37100 ft | 446 kts | 207° |
| 2026-04-25 17:44 | 38.16626 | -1.38509 | 37113 ft | 447 kts | 207° |
| 2026-04-25 17:45 | 38.12051 | -1.41570 | 37100 ft | 447 kts | 207° |
| 2026-04-25 17:45 | 38.05619 | -1.45865 | 37098 ft | 447 kts | 207° |
| 2026-04-25 17:46 | 38.00106 | -1.49540 | 37099 ft | 448 kts | 207° |
| 2026-04-25 17:46 | 37.94627 | -1.53187 | 37102 ft | 448 kts | 207° |
| 2026-04-25 17:47 | 37.89098 | -1.56825 | 37112 ft | 448 kts | 206° |
| 2026-04-25 17:47 | 37.83547 | -1.60437 | 37096 ft | 449 kts | 206° |
| 2026-04-25 17:48 | 37.75218 | -1.65851 | 37095 ft | 449 kts | 206° |
| 2026-04-25 17:49 | 37.69662 | -1.69456 | 37096 ft | 449 kts | 206° |
| 2026-04-25 17:49 | 37.64110 | -1.73052 | 37087 ft | 448 kts | 206° |
| 2026-04-25 17:50 | 37.58556 | -1.76643 | 37099 ft | 448 kts | 206° |
| 2026-04-25 17:50 | 37.53002 | -1.80228 | 37088 ft | 449 kts | 206° |
| 2026-04-25 17:51 | 37.47445 | -1.83809 | 37091 ft | 449 kts | 206° |
| 2026-04-25 17:51 | 37.41879 | -1.87390 | 37090 ft | 449 kts | 206° |
| 2026-04-25 17:52 | 37.36314 | -1.90964 | 37094 ft | 449 kts | 206° |
| 2026-04-25 17:52 | 37.30747 | -1.94533 | 37084 ft | 450 kts | 206° |
| 2026-04-25 17:53 | 37.25174 | -1.98110 | 37087 ft | 450 kts | 207° |
| 2026-04-25 17:53 | 37.19646 | -2.01822 | 37089 ft | 450 kts | 207° |
| 2026-04-25 17:54 | 37.14115 | -2.05514 | 37085 ft | 450 kts | 207° |
| 2026-04-25 17:54 | 37.08579 | -2.09199 | 37076 ft | 451 kts | 207° |
| 2026-04-25 17:55 | 37.03044 | -2.12877 | 37071 ft | 451 kts | 207° |
| 2026-04-25 17:55 | 36.97503 | -2.16554 | 37066 ft | 450 kts | 207° |
| 2026-04-25 17:56 | 36.91973 | -2.20216 | 37049 ft | 450 kts | 208° |
| 2026-04-25 17:56 | 36.86444 | -2.23873 | 37050 ft | 449 kts | 208° |
| 2026-04-25 17:56 | 36.83630 | -2.25542 | 37036 ft | 448 kts | 197° |
| 2026-04-25 17:57 | 36.80586 | -2.26308 | 37061 ft | 446 kts | 188° |
| 2026-04-25 17:57 | 36.74421 | -2.27517 | 37058 ft | 449 kts | 189° |
| 2026-04-25 17:58 | 36.68254 | -2.28659 | 37054 ft | 448 kts | 188° |
| 2026-04-25 17:58 | 36.62126 | -2.29764 | 37062 ft | 447 kts | 188° |
| 2026-04-25 17:59 | 36.55972 | -2.30871 | 37067 ft | 447 kts | 188° |
| 2026-04-25 17:59 | 36.49783 | -2.31981 | 37063 ft | 446 kts | 188° |
| 2026-04-25 18:00 | 36.44684 | -2.32895 | 37072 ft | 446 kts | 189° |
| 2026-04-25 18:00 | 36.37536 | -2.34173 | 37071 ft | 447 kts | 188° |
| 2026-04-25 18:01 | 36.31384 | -2.35272 | 37071 ft | 447 kts | 188° |
| 2026-04-25 18:01 | 36.25220 | -2.36371 | 37068 ft | 447 kts | 188° |
| 2026-04-25 18:02 | 36.19054 | -2.37469 | 37071 ft | 448 kts | 188° |
| 2026-04-25 18:02 | 36.12878 | -2.38567 | 37070 ft | 449 kts | 189° |
| 2026-04-25 18:03 | 36.06812 | -2.39643 | 37075 ft | 425 kts | 189° |
| 2026-04-25 18:03 | 36.03946 | -2.40151 | 37068 ft | 409 kts | 189° |
| 2026-04-25 18:03 | 36.01142 | -2.40648 | 37070 ft | 407 kts | 189° |
| 2026-04-25 18:04 | 35.95483 | -2.41649 | 37054 ft | 415 kts | 189° |
| 2026-04-25 18:04 | 35.92585 | -2.42161 | 36728 ft | 427 kts | 188° |
| 2026-04-25 18:04 | 35.89628 | -2.42682 | 36137 ft | 429 kts | 188° |
| 2026-04-25 18:04 | 35.86688 | -2.43200 | 35640 ft | 426 kts | 187° |
| 2026-04-25 18:05 | 35.83767 | -2.43716 | 35172 ft | 423 kts | 186° |
| 2026-04-25 18:05 | 35.80859 | -2.44229 | 34678 ft | 421 kts | 186° |
| 2026-04-25 18:05 | 35.77963 | -2.44739 | 34179 ft | 420 kts | 185° |
| 2026-04-25 18:05 | 35.75073 | -2.45248 | 33614 ft | 418 kts | 185° |
| 2026-04-25 18:06 | 35.72201 | -2.45754 | 33079 ft | 416 kts | 185° |
| 2026-04-25 18:06 | 35.69351 | -2.46254 | 32610 ft | 413 kts | 185° |
| 2026-04-25 18:06 | 35.66515 | -2.46752 | 32136 ft | 409 kts | 185° |
| 2026-04-25 18:06 | 35.63703 | -2.47245 | 31671 ft | 407 kts | 185° |
| 2026-04-25 18:07 | 35.60910 | -2.47735 | 31206 ft | 405 kts | 186° |
| 2026-04-25 18:07 | 35.58132 | -2.48222 | 30748 ft | 403 kts | 186° |
| 2026-04-25 18:07 | 35.55364 | -2.48706 | 30297 ft | 401 kts | 186° |
| 2026-04-25 18:07 | 35.52609 | -2.49189 | 29802 ft | 399 kts | 186° |
| 2026-04-25 18:08 | 35.49869 | -2.49668 | 29315 ft | 396 kts | 186° |
| 2026-04-25 18:08 | 35.47149 | -2.50144 | 28881 ft | 393 kts | 186° |
| 2026-04-25 18:08 | 35.44455 | -2.50613 | 28451 ft | 390 kts | 186° |
| 2026-04-25 18:08 | 35.41781 | -2.51080 | 28036 ft | 387 kts | 187° |
| 2026-04-25 18:09 | 35.39121 | -2.51543 | 27617 ft | 384 kts | 187° |
| 2026-04-25 18:09 | 35.36484 | -2.52003 | 27209 ft | 382 kts | 187° |
| 2026-04-25 18:09 | 35.33861 | -2.52460 | 26791 ft | 380 kts | 187° |
| 2026-04-25 18:09 | 35.33010 | -2.52608 | 26656 ft | 379 kts | 187° |
| 2026-04-25 18:10 | 35.29525 | -2.53215 | 26110 ft | 377 kts | 188° |
| 2026-04-25 18:10 | 35.26057 | -2.53817 | 25560 ft | 376 kts | 188° |
| 2026-04-25 18:10 | 35.23471 | -2.54266 | 25159 ft | 375 kts | 188° |
| 2026-04-25 18:10 | 35.20887 | -2.54715 | 24748 ft | 374 kts | 189° |
| 2026-04-25 18:11 | 35.18310 | -2.55162 | 24331 ft | 374 kts | 189° |
| 2026-04-25 18:11 | 35.15738 | -2.55608 | 23933 ft | 373 kts | 189° |
| 2026-04-25 18:11 | 35.13168 | -2.56053 | 23528 ft | 373 kts | 189° |
| 2026-04-25 18:11 | 35.10601 | -2.56497 | 23076 ft | 372 kts | 189° |
| 2026-04-25 18:12 | 35.08063 | -2.57047 | 22482 ft | 373 kts | 199° |
| 2026-04-25 18:12 | 35.05757 | -2.58504 | 21661 ft | 377 kts | 222° |
| 2026-04-25 18:12 | 35.04179 | -2.60989 | 20907 ft | 379 kts | 249° |
| 2026-04-25 18:12 | 35.03685 | -2.64135 | 20360 ft | 373 kts | 276° |
| 2026-04-25 18:13 | 35.04389 | -2.67070 | 19965 ft | 364 kts | 302° |
| 2026-04-25 18:13 | 35.06089 | -2.69294 | 19478 ft | 361 kts | 328° |
| 2026-04-25 18:13 | 35.08424 | -2.70368 | 18871 ft | 362 kts | 353° |
| 2026-04-25 18:14 | 35.13092 | -2.68433 | 17436 ft | 374 kts | 46° |
| 2026-04-25 18:14 | 35.14415 | -2.65721 | 16845 ft | 376 kts | 73° |
| 2026-04-25 18:14 | 35.14597 | -2.62561 | 16344 ft | 376 kts | 100° |
| 2026-04-25 18:14 | 35.13622 | -2.59640 | 15899 ft | 372 kts | 126° |
| 2026-04-25 18:15 | 35.11738 | -2.57538 | 15497 ft | 367 kts | 150° |
| 2026-04-25 18:15 | 35.09534 | -2.56008 | 15181 ft | 361 kts | 149° |
| 2026-04-25 18:15 | 35.07411 | -2.54444 | 14847 ft | 356 kts | 149° |
| 2026-04-25 18:15 | 35.05299 | -2.52878 | 14408 ft | 355 kts | 150° |
| 2026-04-25 18:16 | 35.03193 | -2.51309 | 14010 ft | 353 kts | 150° |
| 2026-04-25 18:16 | 35.01104 | -2.49750 | 13609 ft | 349 kts | 150° |
| 2026-04-25 18:16 | 34.97124 | -2.46792 | 12883 ft | 321 kts | 150° |
| 2026-04-25 18:17 | 34.95253 | -2.45404 | 12555 ft | 309 kts | 150° |
| 2026-04-25 18:17 | 34.93460 | -2.44075 | 12317 ft | 294 kts | 150° |
| 2026-04-25 18:17 | 34.91758 | -2.42817 | 12175 ft | 277 kts | 150° |
| 2026-04-25 18:17 | 34.90158 | -2.41634 | 12036 ft | 262 kts | 150° |
| 2026-04-25 18:18 | 34.88648 | -2.40515 | 11900 ft | 247 kts | 149° |
| 2026-04-25 18:18 | 34.87380 | -2.39166 | 11752 ft | 241 kts | 128° |
| 2026-04-25 18:18 | 34.86673 | -2.37314 | 11585 ft | 248 kts | 98° |
| 2026-04-25 18:18 | 34.86924 | -2.35255 | 11483 ft | 250 kts | 59° |
| 2026-04-25 18:19 | 34.88090 | -2.33655 | 11463 ft | 260 kts | 31° |
| 2026-04-25 18:19 | 34.89821 | -2.32973 | 11381 ft | 270 kts | 358° |
| 2026-04-25 18:19 | 34.91629 | -2.33571 | 11172 ft | 276 kts | 325° |
| 2026-04-25 18:19 | 34.92886 | -2.35301 | 10975 ft | 276 kts | 292° |
| 2026-04-25 18:20 | 34.93150 | -2.37576 | 10835 ft | 275 kts | 259° |
| 2026-04-25 18:20 | 34.92344 | -2.39654 | 10713 ft | 276 kts | 227° |
| 2026-04-25 18:20 | 34.90730 | -2.40908 | 10586 ft | 281 kts | 196° |
| 2026-04-25 18:20 | 34.88791 | -2.40922 | 10455 ft | 284 kts | 164° |
| 2026-04-25 18:21 | 34.87036 | -2.39797 | 10339 ft | 288 kts | 149° |
| 2026-04-25 18:21 | 34.85283 | -2.38630 | 10192 ft | 288 kts | 154° |
| 2026-04-25 18:21 | 34.83511 | -2.37511 | 10051 ft | 285 kts | 154° |
| 2026-04-25 18:21 | 34.81750 | -2.36403 | 9751 ft | 285 kts | 154° |
| 2026-04-25 18:22 | 34.79997 | -2.35305 | 9439 ft | 282 kts | 154° |
| 2026-04-25 18:22 | 34.79407 | -2.34936 | 9339 ft | 282 kts | 154° |
| 2026-04-25 18:22 | 34.76527 | -2.33135 | 8827 ft | 278 kts | 154° |
| 2026-04-25 18:22 | 34.74812 | -2.32062 | 8520 ft | 276 kts | 154° |
| 2026-04-25 18:23 | 34.73109 | -2.31000 | 8237 ft | 274 kts | 154° |
| 2026-04-25 18:23 | 34.71420 | -2.29946 | 7941 ft | 272 kts | 154° |
| 2026-04-25 18:23 | 34.70306 | -2.29252 | 7740 ft | 271 kts | 154° |
| 2026-04-25 18:23 | 34.68075 | -2.27863 | 7372 ft | 268 kts | 153° |
| 2026-04-25 18:24 | 34.66989 | -2.27187 | 7272 ft | 261 kts | 153° |
| 2026-04-25 18:24 | 34.65452 | -2.26159 | 7115 ft | 245 kts | 143° |
| 2026-04-25 18:24 | 34.64395 | -2.24638 | 6957 ft | 230 kts | 115° |
| 2026-04-25 18:24 | 34.64019 | -2.22817 | 6840 ft | 222 kts | 91° |
| 2026-04-25 18:25 | 34.64268 | -2.20950 | 6742 ft | 228 kts | 69° |
| 2026-04-25 18:25 | 34.64953 | -2.19192 | 6639 ft | 234 kts | 62° |
| 2026-04-25 18:25 | 34.65760 | -2.17459 | 6324 ft | 238 kts | 60° |
| 2026-04-25 18:25 | 34.66612 | -2.15717 | 5940 ft | 242 kts | 59° |
| 2026-04-25 18:26 | 34.67484 | -2.13983 | 5584 ft | 238 kts | 58° |
| 2026-04-25 18:26 | 34.68343 | -2.12300 | 5267 ft | 231 kts | 58° |
| 2026-04-25 18:26 | 34.69192 | -2.10683 | 4969 ft | 223 kts | 57° |
| 2026-04-25 18:26 | 34.70010 | -2.09118 | 4658 ft | 216 kts | 57° |
| 2026-04-25 18:27 | 34.70804 | -2.07598 | 4356 ft | 209 kts | 57° |
| 2026-04-25 18:27 | 34.71562 | -2.06141 | 4093 ft | 198 kts | 57° |
| 2026-04-25 18:27 | 34.72279 | -2.04763 | 3834 ft | 187 kts | 57° |
| 2026-04-25 18:27 | 34.72953 | -2.03467 | 3562 ft | 176 kts | 57° |
| 2026-04-25 18:28 | 34.73589 | -2.02246 | 3328 ft | 166 kts | 57° |
| 2026-04-25 18:28 | 34.74189 | -2.01092 | 3079 ft | 155 kts | 56° |
| 2026-04-25 18:28 | 34.74746 | -2.00017 | 2907 ft | 148 kts | 55° |
| 2026-04-25 18:29 | 34.75799 | -1.97996 | 2495 ft | 136 kts | 54° |
| 2026-04-25 18:29 | 34.76293 | -1.97045 | 2254 ft | 131 kts | 54° |
| 2026-04-25 18:30 | 34.77737 | -1.94271 | 1708 ft | 129 kts | 56° |
| 2026-04-25 18:30 | 34.78211 | -1.93354 | 1532 ft | 123 kts | 56° |
| 2026-04-25 18:30 | 34.78612 | -1.92608 | 1524 ft | 78 kts | 57° |
| 2026-04-25 18:30 | 34.78834 | -1.92164 | 1526 ft | 57 kts | 56° |
| 2026-04-25 18:31 | 34.79045 | -1.91769 | 1528 ft | 54 kts | 57° |
| 2026-04-25 18:31 | 34.79225 | -1.91417 | 1525 ft | 38 kts | 60° |
| 2026-04-25 18:31 | 34.79335 | -1.91193 | 1529 ft | 23 kts | 59° |
| 2026-04-25 18:31 | 34.79373 | -1.91059 | 1528 ft | 15 kts | 69° |
| 2026-04-25 18:32 | 34.79414 | -1.91044 | 1525 ft | 1 kts | 301° |
| 2026-04-25 18:32 | 34.79413 | -1.91061 | 1521 ft | 6 kts | 256° |
| 2026-04-25 18:32 | 34.79376 | -1.91138 | 1527 ft | 13 kts | 236° |
| 2026-04-25 18:32 | 34.79320 | -1.91242 | 1525 ft | 16 kts | 238° |
| 2026-04-25 18:33 | 34.79255 | -1.91368 | 1525 ft | 19 kts | 238° |
| 2026-04-25 18:33 | 34.79181 | -1.91512 | 1521 ft | 20 kts | 238° |
| 2026-04-25 18:33 | 34.79106 | -1.91656 | 1526 ft | 22 kts | 237° |
| 2026-04-25 18:33 | 34.79023 | -1.91814 | 1524 ft | 23 kts | 238° |
| 2026-04-25 18:34 | 34.78936 | -1.91982 | 1528 ft | 24 kts | 237° |
| 2026-04-25 18:34 | 34.78844 | -1.92156 | 1525 ft | 25 kts | 237° |
| 2026-04-25 18:34 | 34.78748 | -1.92343 | 1527 ft | 27 kts | 238° |
| 2026-04-25 18:34 | 34.78643 | -1.92543 | 1527 ft | 29 kts | 238° |
| 2026-04-25 18:35 | 34.78531 | -1.92757 | 1527 ft | 31 kts | 238° |
| 2026-04-25 18:35 | 34.78415 | -1.92978 | 1527 ft | 32 kts | 237° |
| 2026-04-25 18:35 | 34.78301 | -1.93198 | 1525 ft | 24 kts | 238° |
| 2026-04-25 18:35 | 34.78233 | -1.93364 | 1529 ft | 22 kts | 272° |
| 2026-04-25 18:36 | 34.78322 | -1.93516 | 1525 ft | 24 kts | 310° |
| 2026-04-25 18:36 | 34.78418 | -1.93648 | 1528 ft | 18 kts | 311° |
| 2026-04-25 18:36 | 34.78507 | -1.93766 | 1528 ft | 19 kts | 313° |
| 2026-04-25 18:36 | 34.78538 | -1.93866 | 1523 ft | 10 kts | 233° |
| 2026-04-25 18:37 | 34.78517 | -1.93917 | 1528 ft | 3 kts | 279° |
| 2026-04-25 18:37 | 34.78530 | -1.93930 | 1524 ft | 3 kts | 332° |
| 2026-04-25 18:37 | 34.78558 | -1.93938 | 1525 ft | 5 kts | 349° |
| 2026-04-25 18:37 | 34.78579 | -1.93942 | 1528 ft | 0 kts | 352° |